Time;durP1;ratioP1;P1;durP2;ratioP2;P2;SDS_P1;SDS_P2;PMS_P1;PMS_P2;Temp;Humidity;BMP_temperature;BMP_pressure;BME280_temperature;BME280_humidity;BME280_pressure;Samples;Min_cycle;Max_cycle;Signal;HPM_P1;HPM_P2
2022/01/31 00:00:57;;;;;;;17.80;4.97;;;7.60;72.70;;;;;;5056344;28;20426;-88
2022/01/31 00:03:23;;;;;;;25.08;5.80;;;7.60;72.80;;;;;;5055940;28;20215;-88
2022/01/31 00:05:49;;;;;;;8.77;4.50;;;7.70;73.00;;;;;;5055833;28;20729;-89
2022/01/31 00:08:21;;;;;;;15.73;5.33;;;7.70;73.10;;;;;;5047222;28;20950;-89
2022/01/31 00:10:47;;;;;;;12.35;5.35;;;7.50;73.30;;;;;;5045770;28;20177;-89
2022/01/31 00:13:19;;;;;;;18.10;5.15;;;7.40;73.60;;;;;;5036376;28;20221;-88
2022/01/31 00:15:52;;;;;;;24.10;6.50;;;7.20;74.40;;;;;;5055481;28;20177;-89
2022/01/31 00:18:17;;;;;;;19.90;7.53;;;7.30;74.70;;;;;;5071194;28;20192;-90
2022/01/31 00:20:43;;;;;;;20.63;5.50;;;7.40;75.10;;;;;;5047168;28;20227;-88
2022/01/31 00:23:09;;;;;;;13.80;4.83;;;7.30;75.20;;;;;;5033796;28;20292;-89
2022/01/31 00:25:35;;;;;;;14.93;5.03;;;7.20;75.60;;;;;;5047538;28;20455;-89
2022/01/31 00:28:00;;;;;;;21.77;4.97;;;7.30;76.10;;;;;;5046890;28;20177;-89
2022/01/31 00:30:26;;;;;;;10.63;4.90;;;7.30;76.40;;;;;;5053266;28;20259;-89
2022/01/31 00:32:52;;;;;;;14.50;4.90;;;7.30;76.80;;;;;;5053416;28;20258;-88
2022/01/31 00:35:19;;;;;;;10.73;4.87;;;7.50;76.90;;;;;;5042788;28;20425;-88
2022/01/31 00:37:44;;;;;;;16.63;6.15;;;7.30;76.70;;;;;;5049728;28;20192;-88
2022/01/31 00:40:11;;;;;;;17.47;4.80;;;7.40;76.90;;;;;;5047730;28;20178;-89
2022/01/31 00:42:38;;;;;;;33.53;5.57;;;7.40;76.80;;;;;;5044321;28;20593;-86
2022/01/31 00:45:20;;;;;;;12.95;4.35;;;7.50;76.80;;;;;;5046713;28;20269;-89
2022/01/31 00:47:50;;;;;;;16.63;5.00;;;7.30;76.70;;;;;;5050880;28;20190;-88
2022/01/31 00:50:18;;;;;;;21.25;5.40;;;7.40;76.80;;;;;;5050034;28;20183;-88
2022/01/31 00:52:44;;;;;;;17.05;4.60;;;7.40;77.10;;;;;;5048296;28;20259;-88
2022/01/31 00:55:12;;;;;;;19.42;4.80;;;7.40;77.50;;;;;;5035731;28;20178;-89
2022/01/31 00:57:40;;;;;;;18.55;4.93;;;7.40;77.70;;;;;;5061482;28;20185;-89
2022/01/31 01:00:07;;;;;;;13.23;3.63;;;7.20;78.20;;;;;;5054699;28;20188;-88
2022/01/31 01:02:33;;;;;;;12.20;4.40;;;7.30;78.80;;;;;;5034620;28;20201;-88
2022/01/31 01:04:58;;;;;;;13.80;4.83;;;7.30;79.50;;;;;;5038831;28;20213;-89
2022/01/31 01:07:24;;;;;;;26.97;5.53;;;7.20;80.30;;;;;;5053811;28;20180;-88
2022/01/31 01:09:50;;;;;;;13.27;4.70;;;7.30;81.10;;;;;;5049434;28;20188;-88
2022/01/31 01:12:18;;;;;;;12.93;4.00;;;7.10;81.90;;;;;;5033509;28;20190;-89
2022/01/31 01:14:45;;;;;;;21.55;4.40;;;7.20;82.50;;;;;;5049995;28;20424;-89
2022/01/31 01:17:11;;;;;;;11.93;4.90;;;7.10;83.00;;;;;;5033129;28;20188;-89
2022/01/31 01:19:37;;;;;;;20.10;6.55;;;6.90;83.70;;;;;;5041217;28;20261;-89
2022/01/31 01:22:03;;;;;;;25.30;5.40;;;7.10;84.20;;;;;;5034018;28;20190;-87
2022/01/31 01:24:29;;;;;;;17.13;4.90;;;7.00;84.60;;;;;;5040180;28;20202;-88
2022/01/31 01:26:55;;;;;;;22.10;4.57;;;7.10;84.90;;;;;;5049468;28;20205;-89
2022/01/31 01:29:21;;;;;;;26.58;5.47;;;7.10;85.10;;;;;;5032879;28;20436;-90
2022/01/31 01:31:48;;;;;;;17.80;5.57;;;7.10;85.40;;;;;;5047047;28;20197;-89
2022/01/31 01:34:16;;;;;;;7.88;3.70;;;7.10;85.50;;;;;;5045414;28;20940;-89
2022/01/31 01:36:44;;;;;;;13.27;4.28;;;7.10;85.80;;;;;;5032528;28;20657;-89
2022/01/31 01:39:09;;;;;;;15.73;3.92;;;7.00;86.10;;;;;;5046600;28;20177;-89
2022/01/31 01:41:35;;;;;;;14.40;4.70;;;7.00;86.30;;;;;;5037934;28;20292;-88
2022/01/31 01:44:01;;;;;;;11.27;4.63;;;7.00;86.40;;;;;;5038226;28;20505;-89
2022/01/31 01:46:33;;;;;;;17.03;5.17;;;6.90;86.70;;;;;;5051757;28;20205;-88
2022/01/31 01:48:58;;;;;;;7.10;4.20;;;6.90;87.10;;;;;;5052948;28;20192;-88
2022/01/31 01:51:24;;;;;;;10.33;4.43;;;6.90;87.30;;;;;;5045158;28;20174;-88
2022/01/31 01:53:50;;;;;;;11.80;5.57;;;7.00;87.50;;;;;;5045851;28;20176;-88
2022/01/31 01:56:15;;;;;;;12.10;4.40;;;6.90;87.90;;;;;;5038379;28;20178;-88
2022/01/31 01:58:43;;;;;;;12.77;3.37;;;6.90;88.20;;;;;;5044912;28;20427;-89
2022/01/31 02:01:10;;;;;;;10.68;4.28;;;6.80;88.40;;;;;;5049318;28;20284;-89
2022/01/31 02:03:39;;;;;;;9.80;4.53;;;6.80;88.80;;;;;;5040125;28;20206;-90
2022/01/31 02:06:07;;;;;;;11.20;3.90;;;6.90;89.10;;;;;;5043464;28;20574;-88
2022/01/31 02:08:44;;;;;;;15.07;4.35;;;6.90;89.30;;;;;;5057046;28;20186;-88
2022/01/31 02:11:13;;;;;;;17.15;4.05;;;7.00;89.40;;;;;;5052485;28;20252;-88
2022/01/31 02:13:39;;;;;;;8.07;4.03;;;6.90;89.40;;;;;;5039473;28;20744;-88
2022/01/31 02:16:07;;;;;;;10.18;4.80;;;6.90;89.80;;;;;;5052226;28;20205;-89
2022/01/31 02:18:33;;;;;;;10.30;4.35;;;6.90;90.10;;;;;;5058468;28;20181;-89
2022/01/31 02:21:00;;;;;;;8.13;4.22;;;6.90;90.20;;;;;;5047614;28;20246;-89
2022/01/31 02:23:27;;;;;;;14.15;5.38;;;6.90;90.30;;;;;;5043700;28;20200;-89
2022/01/31 02:26:00;;;;;;;8.73;4.35;;;7.00;90.30;;;;;;5058101;28;20201;-89
2022/01/31 02:28:29;;;;;;;7.07;3.88;;;7.00;90.30;;;;;;5058849;28;20250;-89
2022/01/31 02:30:55;;;;;;;11.23;5.15;;;7.00;90.40;;;;;;5058029;28;20185;-89
2022/01/31 02:33:22;;;;;;;13.82;5.30;;;7.00;90.30;;;;;;5055942;28;20198;-89
2022/01/31 02:35:49;;;;;;;7.53;4.13;;;7.10;90.50;;;;;;5055590;28;20249;-89
2022/01/31 02:38:15;;;;;;;13.05;5.57;;;7.10;90.50;;;;;;5055629;28;20185;-87
2022/01/31 02:40:42;;;;;;;21.00;6.85;;;7.20;90.40;;;;;;5049060;28;20582;-89
2022/01/31 02:43:08;;;;;;;10.57;5.60;;;7.10;90.30;;;;;;5035648;28;20673;-89
2022/01/31 02:45:34;;;;;;;8.07;5.27;;;7.10;90.50;;;;;;5035559;28;20233;-89
2022/01/31 02:48:02;;;;;;;11.35;6.57;;;7.10;90.60;;;;;;5036670;28;20410;-89
2022/01/31 02:50:28;;;;;;;18.08;7.13;;;7.20;90.70;;;;;;5035444;28;20261;-88
2022/01/31 02:53:11;;;;;;;19.85;6.50;;;7.30;90.70;;;;;;5036665;28;20224;-88
2022/01/31 02:55:39;;;;;;;15.98;7.35;;;7.30;90.50;;;;;;5051308;28;20180;-89
2022/01/31 02:58:05;;;;;;;15.80;7.13;;;7.30;90.30;;;;;;5036941;28;20174;-89
2022/01/31 03:00:30;;;;;;;12.73;6.13;;;7.30;90.20;;;;;;5035638;28;20599;-89
2022/01/31 03:02:56;;;;;;;17.63;5.87;;;7.30;90.20;;;;;;5037005;28;20198;-89
2022/01/31 03:05:22;;;;;;;14.33;5.07;;;7.40;90.00;;;;;;5035644;28;20220;-89
2022/01/31 03:07:48;;;;;;;19.97;4.90;;;7.40;89.90;;;;;;5035802;28;20277;-89
2022/01/31 03:10:13;;;;;;;16.80;4.33;;;7.40;89.60;;;;;;5055527;28;20423;-89
2022/01/31 03:12:39;;;;;;;11.60;3.67;;;7.40;89.20;;;;;;5055415;28;20193;-89
2022/01/31 03:15:05;;;;;;;21.27;4.70;;;7.40;88.80;;;;;;5058106;28;20673;-89
2022/01/31 03:17:30;;;;;;;6.40;3.70;;;7.40;88.20;;;;;;5046052;28;20662;-89
2022/01/31 03:19:56;;;;;;;6.13;3.30;;;7.40;87.60;;;;;;5036078;28;20269;-89
2022/01/31 03:22:23;;;;;;;13.27;3.57;;;7.30;86.80;;;;;;5036916;28;20224;-89
2022/01/31 03:24:49;;;;;;;12.23;3.78;;;7.30;85.90;;;;;;5040790;28;20170;-89
2022/01/31 03:27:16;;;;;;;7.97;3.50;;;7.30;85.70;;;;;;5051144;28;20201;-89
2022/01/31 03:29:42;;;;;;;15.40;3.72;;;7.30;85.30;;;;;;5044616;28;20166;-89
2022/01/31 03:32:08;;;;;;;16.10;3.85;;;7.30;85.10;;;;;;5049305;28;20212;-88
2022/01/31 03:34:34;;;;;;;20.60;3.28;;;7.20;84.80;;;;;;5047479;28;20297;-89
2022/01/31 03:36:59;;;;;;;12.87;3.40;;;7.20;84.60;;;;;;5056164;28;20188;-89
2022/01/31 03:39:25;;;;;;;9.30;2.83;;;7.20;84.40;;;;;;5071409;28;20177;-89
2022/01/31 03:41:51;;;;;;;15.95;3.10;;;7.20;84.10;;;;;;5063873;28;20450;-89
2022/01/31 03:44:17;;;;;;;21.60;3.30;;;7.20;84.00;;;;;;5055452;28;20185;-89
2022/01/31 03:46:44;;;;;;;7.83;2.20;;;7.20;83.80;;;;;;5056952;28;20452;-89
2022/01/31 03:49:10;;;;;;;19.63;3.03;;;7.30;83.70;;;;;;5043356;28;20242;-89
2022/01/31 03:51:36;;;;;;;10.13;2.87;;;7.20;83.10;;;;;;5054797;28;20181;-89
2022/01/31 03:54:03;;;;;;;14.77;3.10;;;7.20;82.90;;;;;;5038392;28;20670;-89
2022/01/31 03:56:29;;;;;;;20.15;2.88;;;7.20;82.90;;;;;;5035129;28;20417;-89
2022/01/31 03:58:55;;;;;;;16.77;2.90;;;7.20;82.30;;;;;;5053688;28;20555;-89
2022/01/31 04:01:23;;;;;;;13.57;2.40;;;7.20;82.00;;;;;;5053991;28;20184;-89
2022/01/31 04:03:48;;;;;;;8.57;2.65;;;7.20;81.70;;;;;;5042052;28;20185;-90
2022/01/31 04:06:14;;;;;;;19.17;2.70;;;7.20;81.20;;;;;;5050032;28;20277;-90
2022/01/31 04:08:40;;;;;;;6.00;2.40;;;7.10;81.10;;;;;;5055506;28;20477;-90
2022/01/31 04:11:06;;;;;;;8.23;2.50;;;7.10;80.90;;;;;;5046769;28;20655;-89
2022/01/31 04:13:31;;;;;;;15.73;2.70;;;7.00;80.40;;;;;;5042111;28;20444;-89
2022/01/31 04:15:57;;;;;;;14.27;3.87;;;7.00;80.20;;;;;;5033424;28;20184;-89
2022/01/31 04:18:22;;;;;;;8.93;3.10;;;7.00;80.20;;;;;;5033828;28;20658;-89
2022/01/31 04:20:49;;;;;;;16.20;3.30;;;7.00;80.20;;;;;;5037672;28;20181;-89
2022/01/31 04:23:17;;;;;;;10.48;2.70;;;7.10;80.10;;;;;;5053889;28;20250;-88
2022/01/31 04:28:20;;;;;;;8.57;2.43;;;7.00;79.00;;;;;;5054814;28;20169;-88
2022/01/31 04:33:23;;;;;;;10.27;1.77;;;7.00;78.80;;;;;;5045919;28;20201;-88
2022/01/31 04:35:49;;;;;;;23.92;2.33;;;7.00;78.20;;;;;;5033659;28;20527;-88
2022/01/31 04:38:15;;;;;;;6.80;2.00;;;7.10;78.40;;;;;;5034695;28;20206;-87
2022/01/31 04:40:41;;;;;;;25.30;2.83;;;7.10;78.00;;;;;;5050593;28;20181;-87
2022/01/31 04:43:07;;;;;;;4.63;1.83;;;7.10;77.90;;;;;;5039213;28;20193;-87
2022/01/31 04:45:33;;;;;;;15.63;2.80;;;7.00;78.70;;;;;;5053389;28;20459;-87
2022/01/31 04:47:58;;;;;;;5.17;1.87;;;6.90;78.00;;;;;;5053263;28;20412;-87
2022/01/31 04:50:24;;;;;;;16.30;2.30;;;7.00;78.00;;;;;;5055027;28;20169;-87
2022/01/31 04:52:50;;;;;;;13.20;2.10;;;7.00;78.10;;;;;;5054633;28;20194;-88
2022/01/31 04:55:16;;;;;;;16.80;2.77;;;6.90;78.10;;;;;;5053759;28;20181;-88
2022/01/31 04:57:42;;;;;;;19.87;2.80;;;7.00;78.10;;;;;;5035405;28;20705;-88
2022/01/31 05:00:09;;;;;;;12.57;4.05;;;7.00;78.00;;;;;;5037679;28;20291;-88
2022/01/31 05:02:36;;;;;;;12.05;2.63;;;7.00;78.10;;;;;;5056038;28;20571;-88
2022/01/31 05:05:02;;;;;;;6.65;2.15;;;7.20;78.20;;;;;;5044257;28;20277;-88
2022/01/31 05:07:28;;;;;;;13.90;2.58;;;7.20;78.00;;;;;;5033757;28;20277;-88
2022/01/31 05:09:55;;;;;;;19.57;3.33;;;7.20;77.70;;;;;;5045306;28;20204;-88
2022/01/31 05:12:22;;;;;;;18.30;2.30;;;7.20;77.60;;;;;;5043390;28;20447;-88
2022/01/31 05:14:48;;;;;;;11.55;2.47;;;7.20;77.50;;;;;;5038232;28;20185;-88
2022/01/31 05:17:13;;;;;;;9.63;2.70;;;7.20;77.40;;;;;;5038403;28;20227;-88
2022/01/31 05:19:39;;;;;;;7.77;2.70;;;7.30;77.40;;;;;;5035235;28;20308;-88
2022/01/31 05:22:05;;;;;;;11.73;2.50;;;7.40;77.00;;;;;;5037450;28;20261;-88
2022/01/31 05:24:30;;;;;;;14.27;2.80;;;7.30;76.40;;;;;;5043476;28;20182;-88
2022/01/31 05:26:56;;;;;;;13.13;3.47;;;7.30;76.00;;;;;;5044431;28;20201;-88
2022/01/31 05:29:22;;;;;;;13.10;3.40;;;7.30;75.80;;;;;;5040887;28;20236;-89
2022/01/31 05:31:52;;;;;;;14.67;2.20;;;7.40;75.70;;;;;;5037179;28;20202;-88
2022/01/31 05:34:19;;;;;;;14.38;2.80;;;7.40;75.30;;;;;;5037011;28;20413;-88
2022/01/31 05:36:46;;;;;;;18.95;4.45;;;7.40;75.10;;;;;;5036710;28;20192;-88
2022/01/31 05:39:11;;;;;;;7.93;2.22;;;7.50;75.00;;;;;;5047643;28;20177;-88
2022/01/31 05:41:37;;;;;;;10.73;2.97;;;7.40;74.50;;;;;;5040288;28;20190;-88
2022/01/31 05:44:03;;;;;;;14.23;2.72;;;7.40;74.00;;;;;;5036609;28;20177;-88
2022/01/31 05:46:29;;;;;;;13.30;2.20;;;7.40;73.70;;;;;;5036392;28;20202;-88
2022/01/31 05:48:54;;;;;;;7.40;1.97;;;7.40;73.50;;;;;;5037182;28;21097;-88
2022/01/31 05:51:23;;;;;;;12.90;2.47;;;7.40;73.10;;;;;;5050524;28;20177;-88
2022/01/31 05:53:50;;;;;;;18.83;3.35;;;7.40;73.30;;;;;;5047567;28;20192;-88
2022/01/31 05:56:17;;;;;;;8.18;2.33;;;7.40;73.10;;;;;;5036471;28;20182;-88
2022/01/31 05:58:44;;;;;;;9.40;2.60;;;7.40;73.10;;;;;;5044008;28;20169;-89
2022/01/31 06:01:17;;;;;;;9.93;2.28;;;7.40;73.20;;;;;;5056695;28;20182;-89
2022/01/31 06:03:42;;;;;;;10.80;3.72;;;7.40;73.20;;;;;;5055900;28;20260;-88
2022/01/31 06:06:08;;;;;;;14.70;2.90;;;7.50;73.20;;;;;;5056224;28;20677;-88
2022/01/31 06:08:34;;;;;;;10.83;2.50;;;7.50;73.30;;;;;;5056789;28;20184;-88
2022/01/31 06:11:00;;;;;;;14.40;2.20;;;7.40;73.10;;;;;;5056849;28;20193;-88
2022/01/31 06:13:29;;;;;;;10.13;2.13;;;7.40;73.20;;;;;;5058167;28;20189;-88
2022/01/31 06:15:57;;;;;;;11.38;3.72;;;7.40;73.10;;;;;;5060401;28;20476;-88
2022/01/31 06:18:23;;;;;;;18.27;2.63;;;7.40;73.10;;;;;;5063942;28;20173;-89
2022/01/31 06:20:48;;;;;;;10.13;2.50;;;7.40;73.10;;;;;;5067390;28;20268;-89
2022/01/31 06:23:14;;;;;;;6.53;2.00;;;7.40;73.00;;;;;;5064911;28;20665;-89
2022/01/31 06:25:40;;;;;;;20.03;2.47;;;7.40;73.20;;;;;;5059340;28;20752;-90
2022/01/31 06:28:06;;;;;;;20.27;2.90;;;7.40;73.20;;;;;;5059366;28;20526;-90
2022/01/31 06:30:33;;;;;;;20.67;3.58;;;7.50;73.10;;;;;;5057298;28;20173;-89
2022/01/31 06:33:16;;;;;;;10.75;2.90;;;7.50;73.00;;;;;;5056609;28;20221;-90
2022/01/31 06:35:47;;;;;;;16.95;2.30;;;7.40;72.90;;;;;;5049935;28;20169;-90
2022/01/31 06:38:35;;;;;;;9.77;2.47;;;7.40;72.80;;;;;;5036537;28;20182;-90
2022/01/31 06:41:04;;;;;;;6.47;2.38;;;7.40;72.90;;;;;;5046805;28;20260;-90
2022/01/31 06:44:02;;;;;;;13.65;3.15;;;7.30;72.40;;;;;;5043932;28;20198;-91
2022/01/31 06:46:28;;;;;;;9.43;2.20;;;7.30;72.80;;;;;;5053983;28;20202;-91
2022/01/31 06:48:54;;;;;;;10.83;2.53;;;7.50;72.60;;;;;;5064147;28;20204;-91
2022/01/31 06:51:20;;;;;;;10.03;1.87;;;7.30;71.50;;;;;;5047815;28;20186;-90
2022/01/31 06:53:48;;;;;;;10.10;2.30;;;7.30;71.30;;;;;;5044660;28;20198;-90
2022/01/31 06:56:16;;;;;;;7.20;2.33;;;7.30;71.10;;;;;;5037332;28;20432;-90
2022/01/31 06:58:42;;;;;;;8.00;2.60;;;7.30;70.80;;;;;;5049381;28;20543;-90
2022/01/31 07:01:07;;;;;;;20.77;3.43;;;7.30;70.30;;;;;;5041253;28;20249;-89
2022/01/31 07:03:36;;;;;;;12.53;2.17;;;7.30;70.00;;;;;;5038770;28;20185;-90
2022/01/31 07:06:02;;;;;;;7.72;2.90;;;7.30;70.00;;;;;;5044440;28;20205;-89
2022/01/31 07:08:27;;;;;;;19.27;2.70;;;7.30;69.60;;;;;;5057001;28;20264;-89
2022/01/31 07:10:53;;;;;;;5.67;2.30;;;7.30;69.60;;;;;;5057385;28;20201;-89
2022/01/31 07:13:39;;;;;;;22.23;4.23;;;7.40;69.70;;;;;;5055140;28;20263;-90
2022/01/31 07:16:05;;;;;;;7.15;1.92;;;7.30;69.70;;;;;;5047989;28;20427;-89
2022/01/31 07:18:33;;;;;;;7.80;1.55;;;7.40;69.50;;;;;;5039367;28;20186;-90
2022/01/31 07:20:59;;;;;;;13.18;1.80;;;7.40;69.70;;;;;;5042315;28;20186;-90
2022/01/31 07:23:37;;;;;;;5.80;1.67;;;7.40;69.40;;;;;;5051053;28;20212;-90
2022/01/31 07:26:03;;;;;;;26.50;4.13;;;7.40;69.50;;;;;;5035736;28;20460;-89
2022/01/31 07:28:29;;;;;;;12.10;2.47;;;7.40;69.70;;;;;;5035214;28;20260;-89
2022/01/31 07:30:56;;;;;;;12.47;2.97;;;7.40;69.50;;;;;;5035210;28;20231;-90
2022/01/31 07:33:23;;;;;;;8.15;2.90;;;7.40;70.10;;;;;;5035866;28;20748;-90
2022/01/31 07:35:50;;;;;;;11.55;2.58;;;7.50;70.30;;;;;;5035751;28;20594;-90
2022/01/31 07:38:17;;;;;;;15.32;3.03;;;7.60;70.40;;;;;;5040403;28;20807;-90
2022/01/31 07:40:43;;;;;;;12.07;2.20;;;7.50;69.80;;;;;;5055088;28;20185;-89
2022/01/31 07:43:10;;;;;;;15.02;2.55;;;7.40;69.60;;;;;;5057299;28;20197;-89
2022/01/31 07:45:35;;;;;;;16.10;2.47;;;7.50;69.50;;;;;;5057009;28;20254;-89
2022/01/31 07:48:01;;;;;;;11.40;2.80;;;7.40;69.60;;;;;;5057885;28;20644;-89
2022/01/31 07:50:30;;;;;;;9.65;2.95;;;7.30;69.50;;;;;;5056342;28;20189;-89
2022/01/31 07:52:56;;;;;;;16.88;1.83;;;7.30;69.70;;;;;;5054779;28;20201;-90
2022/01/31 07:55:22;;;;;;;16.63;4.30;;;7.40;69.20;;;;;;5055806;28;20193;-89
2022/01/31 07:57:48;;;;;;;14.03;2.80;;;7.40;68.80;;;;;;5055962;28;20235;-89
2022/01/31 08:00:14;;;;;;;10.43;2.90;;;7.30;68.70;;;;;;5057980;28;20420;-89
2022/01/31 08:02:41;;;;;;;13.45;2.05;;;7.30;69.00;;;;;;5055740;28;20247;-89
2022/01/31 08:05:07;;;;;;;10.55;2.50;;;7.30;69.10;;;;;;5054742;28;20197;-90
2022/01/31 08:07:34;;;;;;;7.80;2.20;;;7.40;68.90;;;;;;5054930;28;20195;-89
2022/01/31 08:10:02;;;;;;;11.73;2.75;;;7.40;68.90;;;;;;5056724;28;20174;-90
2022/01/31 08:12:28;;;;;;;11.40;3.13;;;7.30;69.00;;;;;;5069076;28;20197;-89
2022/01/31 08:15:00;;;;;;;9.23;2.70;;;7.40;69.10;;;;;;5076306;28;20220;-90
2022/01/31 08:17:26;;;;;;;5.57;1.85;;;7.40;69.10;;;;;;5057310;28;20416;-89
2022/01/31 08:19:52;;;;;;;29.03;3.37;;;7.30;68.90;;;;;;5054137;28;20181;-90
2022/01/31 08:22:18;;;;;;;11.97;2.73;;;7.30;68.80;;;;;;5053569;28;20440;-90
2022/01/31 08:24:43;;;;;;;27.70;3.17;;;7.40;68.50;;;;;;5053131;28;20185;-89
2022/01/31 08:27:09;;;;;;;4.03;1.73;;;7.40;68.50;;;;;;5053924;28;20213;-89
2022/01/31 08:29:37;;;;;;;19.90;2.87;;;7.30;68.20;;;;;;5053885;28;20490;-90
2022/01/31 08:32:21;;;;;;;11.60;3.05;;;7.30;68.10;;;;;;5054673;28;20235;-89
2022/01/31 08:37:39;;;;;;;10.43;2.15;;;7.30;68.00;;;;;;5055025;28;20184;-89
2022/01/31 08:40:06;;;;;;;12.00;3.03;;;7.20;67.70;;;;;;5053822;28;20634;-89
2022/01/31 08:42:32;;;;;;;10.68;3.42;;;7.40;67.70;;;;;;5047132;28;20204;-89
2022/01/31 08:44:57;;;;;;;8.77;2.30;;;7.30;67.30;;;;;;5034062;28;20186;-90
2022/01/31 08:47:23;;;;;;;22.23;2.80;;;7.30;67.50;;;;;;5035113;28;20166;-89
2022/01/31 08:49:49;;;;;;;14.03;3.47;;;7.30;67.60;;;;;;5033583;28;20257;-90
2022/01/31 08:52:15;;;;;;;5.78;2.22;;;7.30;67.60;;;;;;5033577;28;20285;-90
2022/01/31 08:54:41;;;;;;;12.37;2.40;;;7.30;67.10;;;;;;5034480;28;20231;-90
2022/01/31 08:57:07;;;;;;;9.45;2.47;;;7.30;67.20;;;;;;5035157;28;20184;-87
2022/01/31 08:59:33;;;;;;;15.63;2.60;;;7.30;67.10;;;;;;5034833;28;20197;-90
2022/01/31 09:02:10;;;;;;;16.13;2.97;;;7.30;67.00;;;;;;5033902;28;20845;-90
2022/01/31 09:04:48;;;;;;;18.77;2.72;;;7.30;67.00;;;;;;5035519;28;20245;-89
2022/01/31 09:07:24;;;;;;;17.67;3.25;;;7.40;67.10;;;;;;5050181;28;20240;-89
2022/01/31 09:09:54;;;;;;;21.48;2.75;;;7.40;66.80;;;;;;5041485;28;20176;-90
2022/01/31 09:12:29;;;;;;;12.43;2.15;;;7.40;66.80;;;;;;5033927;28;20280;-90
2022/01/31 09:14:55;;;;;;;12.18;2.20;;;7.50;66.80;;;;;;5034338;28;20176;-89
2022/01/31 09:17:21;;;;;;;14.13;3.88;;;7.40;66.80;;;;;;5035988;28;20268;-89
2022/01/31 09:19:47;;;;;;;12.38;2.40;;;7.40;66.70;;;;;;5034658;28;20170;-90
2022/01/31 09:22:13;;;;;;;9.10;2.33;;;7.40;66.80;;;;;;5033712;28;20220;-89
2022/01/31 09:24:40;;;;;;;17.93;4.30;;;7.40;68.60;;;;;;5033174;28;20548;-90
2022/01/31 09:27:07;;;;;;;15.70;3.85;;;7.30;69.80;;;;;;5033293;28;20208;-89
2022/01/31 09:29:34;;;;;;;32.75;3.40;;;7.20;70.90;;;;;;5036236;28;20189;-89
2022/01/31 09:32:03;;;;;;;10.15;2.78;;;7.00;70.30;;;;;;5034224;28;20201;-89
2022/01/31 09:34:30;;;;;;;23.17;3.67;;;7.00;70.20;;;;;;5033439;28;20181;-90
2022/01/31 09:36:57;;;;;;;15.95;3.60;;;7.20;70.10;;;;;;5033313;28;20684;-90
2022/01/31 09:39:23;;;;;;;11.93;2.80;;;7.20;70.10;;;;;;5033544;28;20193;-90
2022/01/31 09:41:54;;;;;;;15.73;3.30;;;7.20;68.50;;;;;;5034510;28;20592;-90
2022/01/31 09:44:38;;;;;;;12.63;2.10;;;7.30;68.40;;;;;;5033400;28;20417;-90
2022/01/31 09:47:21;;;;;;;16.20;2.25;;;7.20;67.60;;;;;;5033388;28;20247;-90
2022/01/31 09:49:47;;;;;;;11.73;2.42;;;7.20;67.20;;;;;;5033195;28;20189;-90
2022/01/31 09:52:13;;;;;;;18.47;3.00;;;7.30;67.20;;;;;;5034147;28;20189;-90
2022/01/31 09:54:39;;;;;;;10.77;2.10;;;7.30;67.40;;;;;;5032246;28;20512;-90
2022/01/31 09:57:05;;;;;;;9.13;2.70;;;7.40;67.60;;;;;;5033705;28;20220;-90
2022/01/31 09:59:31;;;;;;;15.95;2.80;;;7.30;67.60;;;;;;5043109;28;20177;-90
2022/01/31 10:01:59;;;;;;;14.10;3.30;;;7.30;67.90;;;;;;5047219;28;20198;-90
2022/01/31 10:04:29;;;;;;;16.70;2.58;;;7.20;67.90;;;;;;5034217;28;20196;-90
2022/01/31 10:06:57;;;;;;;23.00;3.47;;;7.30;68.00;;;;;;5038331;28;20216;-90
2022/01/31 10:09:26;;;;;;;18.15;3.45;;;7.30;68.10;;;;;;5053060;28;20188;-90
2022/01/31 10:11:57;;;;;;;23.98;2.97;;;7.40;68.00;;;;;;5053326;28;20266;-90
2022/01/31 10:17:24;;;;;;;14.00;2.60;;;7.30;68.00;;;;;;5058149;28;20763;-90
2022/01/31 10:19:53;;;;;;;23.73;3.58;;;7.40;67.90;;;;;;5059239;28;20169;-90
2022/01/31 10:22:20;;;;;;;16.80;3.50;;;7.50;67.90;;;;;;5060323;28;20233;-90
2022/01/31 10:24:48;;;;;;;14.63;3.47;;;7.60;67.70;;;;;;5058445;28;20246;-90
2022/01/31 10:27:16;;;;;;;33.42;4.30;;;7.60;67.40;;;;;;5057706;28;20201;-90
2022/01/31 10:29:44;;;;;;;33.10;4.63;;;7.50;68.10;;;;;;5056872;28;20185;-90
2022/01/31 10:32:17;;;;;;;25.25;5.05;;;7.60;69.20;;;;;;5058164;28;20189;-89
2022/01/31 10:34:51;;;;;;;13.20;2.67;;;7.60;70.80;;;;;;5055408;28;20173;-90
2022/01/31 10:37:19;;;;;;;10.68;1.92;;;7.50;72.00;;;;;;5057503;28;20185;-90
2022/01/31 10:45:29;;;;;;;13.60;2.70;;;6.80;73.60;;;;;;5058655;28;20243;-89
2022/01/31 10:51:41;;;;;;;16.77;2.30;;;6.70;76.00;;;;;;5069488;28;20185;-90
2022/01/31 10:56:41;;;;;;;13.80;3.70;;;6.70;75.80;;;;;;5061127;28;20170;-89
2022/01/31 10:59:33;;;;;;;31.65;4.57;;;6.80;75.70;;;;;;5051920;28;20212;-89
2022/01/31 11:02:00;;;;;;;13.02;3.85;;;6.80;75.10;;;;;;5036418;28;20271;-90
2022/01/31 11:04:47;;;;;;;25.83;4.95;;;6.80;75.00;;;;;;5036593;28;20186;-90
2022/01/31 11:07:19;;;;;;;13.27;4.10;;;6.90;74.80;;;;;;5045357;28;20209;-90
2022/01/31 11:09:46;;;;;;;27.05;5.28;;;7.00;74.60;;;;;;5066177;28;20799;-90
2022/01/31 11:12:13;;;;;;;22.42;3.55;;;7.00;73.90;;;;;;5068669;28;20189;-90
2022/01/31 11:14:44;;;;;;;19.13;4.78;;;7.00;73.10;;;;;;5058715;28;20205;-90
2022/01/31 11:17:13;;;;;;;24.38;5.40;;;7.10;72.50;;;;;;5058547;28;20165;-90
2022/01/31 11:19:44;;;;;;;14.50;3.95;;;7.20;72.10;;;;;;5057169;28;20181;-90
2022/01/31 11:22:13;;;;;;;19.83;3.50;;;7.30;71.50;;;;;;5054647;28;20197;-90
2022/01/31 11:24:49;;;;;;;20.73;3.35;;;7.10;70.80;;;;;;5056479;28;20191;-90
2022/01/31 11:27:24;;;;;;;22.55;3.78;;;7.10;70.70;;;;;;5055460;28;20193;-90
2022/01/31 11:29:55;;;;;;;16.58;3.35;;;7.10;70.50;;;;;;5054703;28;20554;-89
2022/01/31 11:32:24;;;;;;;12.77;3.08;;;7.10;70.40;;;;;;5054625;28;20258;-90
2022/01/31 11:34:51;;;;;;;17.35;3.88;;;7.20;70.40;;;;;;5041965;28;20193;-90
2022/01/31 11:37:20;;;;;;;9.05;2.85;;;7.20;70.70;;;;;;5042256;28;20227;-90
2022/01/31 11:39:47;;;;;;;10.85;3.35;;;7.20;70.40;;;;;;5055547;28;20177;-89
2022/01/31 11:42:16;;;;;;;19.50;4.05;;;7.10;69.80;;;;;;5055547;28;20573;-89
2022/01/31 11:45:13;;;;;;;21.83;4.07;;;7.00;69.50;;;;;;5055489;28;20208;-90
2022/01/31 11:47:40;;;;;;;29.40;4.95;;;7.20;69.30;;;;;;5055462;28;20180;-90
2022/01/31 11:50:09;;;;;;;16.55;3.95;;;7.20;68.90;;;;;;5060349;28;20803;-90
2022/01/31 11:52:51;;;;;;;17.80;5.18;;;7.20;69.00;;;;;;5060774;28;20251;-89
2022/01/31 11:55:20;;;;;;;12.43;3.55;;;7.30;68.90;;;;;;5055355;28;20249;-90
2022/01/31 11:57:48;;;;;;;20.02;4.57;;;7.30;68.70;;;;;;5054087;28;20173;-90
2022/01/31 12:00:17;;;;;;;17.23;4.53;;;7.30;68.70;;;;;;5054356;28;20177;-90
2022/01/31 12:02:45;;;;;;;30.23;3.90;;;7.40;68.70;;;;;;5054031;28;20197;-90
2022/01/31 12:05:16;;;;;;;18.65;3.95;;;7.30;68.90;;;;;;5055370;28;20186;-90
2022/01/31 12:07:47;;;;;;;16.80;4.25;;;7.30;69.20;;;;;;5054312;28;20267;-90
2022/01/31 12:10:37;;;;;;;16.95;5.00;;;7.20;69.30;;;;;;5053642;28;20201;-89
2022/01/31 12:13:35;;;;;;;14.38;3.75;;;7.30;69.60;;;;;;5053914;28;20224;-90
2022/01/31 12:23:53;;;;;;;20.35;4.63;;;7.30;67.40;;;;;;5064229;28;20188;-89
2022/01/31 12:26:34;;;;;;;20.33;3.55;;;7.40;67.80;;;;;;5062425;28;20204;-90
2022/01/31 12:29:01;;;;;;;23.58;5.07;;;7.40;67.70;;;;;;5064137;28;20165;-90
2022/01/31 12:31:41;;;;;;;19.85;4.03;;;7.40;68.60;;;;;;5059190;28;20178;-90
2022/01/31 12:34:27;;;;;;;32.55;4.75;;;7.30;70.20;;;;;;5055665;28;20177;-88
2022/01/31 12:36:57;;;;;;;20.70;4.40;;;7.20;71.20;;;;;;5067884;28;20249;-88
2022/01/31 12:39:36;;;;;;;28.92;4.65;;;7.20;70.80;;;;;;5049242;28;20186;-89
2022/01/31 12:42:46;;;;;;;26.33;7.15;;;7.20;70.50;;;;;;5050233;28;20194;-91
2022/01/31 12:45:18;;;;;;;23.70;5.07;;;7.20;69.60;;;;;;5035198;28;20169;-89
2022/01/31 12:48:15;;;;;;;20.23;4.53;;;7.20;69.10;;;;;;5033818;28;20639;-89
2022/01/31 12:50:48;;;;;;;15.98;3.85;;;7.30;68.50;;;;;;5035124;28;20193;-89
2022/01/31 12:53:24;;;;;;;17.63;4.05;;;7.30;68.40;;;;;;5034513;28;20193;-89
2022/01/31 12:56:13;;;;;;;35.58;5.80;;;7.30;67.90;;;;;;5034773;28;20173;-89
2022/01/31 12:59:03;;;;;;;25.25;5.35;;;7.40;67.30;;;;;;5052347;28;20177;-88
2022/01/31 13:01:29;;;;;;;25.85;5.00;;;7.40;66.40;;;;;;5052818;28;20188;-88
2022/01/31 13:04:04;;;;;;;34.17;5.73;;;7.40;66.20;;;;;;5054945;28;20191;-89
2022/01/31 13:06:51;;;;;;;32.28;5.68;;;7.40;66.00;;;;;;5052714;28;20271;-89
2022/01/31 13:09:22;;;;;;;26.75;6.10;;;7.40;65.70;;;;;;5053606;28;20830;-89
2022/01/31 13:12:01;;;;;;;16.73;5.43;;;7.40;65.70;;;;;;5054799;28;20287;-88
2022/01/31 13:14:29;;;;;;;13.18;3.70;;;7.30;66.10;;;;;;5062742;28;20169;-88
2022/01/31 13:17:05;;;;;;;20.90;5.45;;;7.30;66.00;;;;;;5059212;28;20185;-89
2022/01/31 13:19:34;;;;;;;17.70;4.32;;;7.30;66.30;;;;;;5054664;28;20180;-87
2022/01/31 13:22:04;;;;;;;18.58;4.57;;;7.30;66.20;;;;;;5056628;28;20201;-89
2022/01/31 13:24:37;;;;;;;27.85;5.40;;;7.30;66.00;;;;;;5052560;28;20223;-89
2022/01/31 13:27:05;;;;;;;21.27;5.07;;;7.40;65.80;;;;;;5052736;28;20246;-89